sensor_id;sensor_type;location;lat;lon;timestamp;P1;durP1;ratioP1;P2;durP2;ratioP2
18142;SDS011;9197;50.930;3.140;2023-02-21T00:01:52;34.07;;;21.07;;
18142;SDS011;9197;50.930;3.140;2023-02-21T00:04:37;32.50;;;20.87;;
18142;SDS011;9197;50.930;3.140;2023-02-21T00:07:21;35.57;;;20.87;;
18142;SDS011;9197;50.930;3.140;2023-02-21T00:10:06;29.77;;;20.57;;
18142;SDS011;9197;50.930;3.140;2023-02-21T00:12:53;33.70;;;20.40;;
18142;SDS011;9197;50.930;3.140;2023-02-21T00:15:38;37.20;;;21.43;;
18142;SDS011;9197;50.930;3.140;2023-02-21T00:18:23;40.23;;;22.50;;
18142;SDS011;9197;50.930;3.140;2023-02-21T00:21:07;38.83;;;23.23;;
18142;SDS011;9197;50.930;3.140;2023-02-21T00:23:52;39.23;;;22.17;;
18142;SDS011;9197;50.930;3.140;2023-02-21T00:26:37;41.47;;;23.07;;
18142;SDS011;9197;50.930;3.140;2023-02-21T00:29:23;38.93;;;22.33;;
18142;SDS011;9197;50.930;3.140;2023-02-21T00:32:08;34.93;;;21.73;;
18142;SDS011;9197;50.930;3.140;2023-02-21T00:34:53;36.17;;;21.40;;
18142;SDS011;9197;50.930;3.140;2023-02-21T00:37:37;36.67;;;20.47;;
18142;SDS011;9197;50.930;3.140;2023-02-21T00:40:22;43.13;;;23.50;;
18142;SDS011;9197;50.930;3.140;2023-02-21T00:43:07;42.40;;;22.97;;
18142;SDS011;9197;50.930;3.140;2023-02-21T00:45:53;42.30;;;24.00;;
18142;SDS011;9197;50.930;3.140;2023-02-21T00:48:37;42.40;;;23.70;;
18142;SDS011;9197;50.930;3.140;2023-02-21T00:51:22;47.83;;;23.90;;
18142;SDS011;9197;50.930;3.140;2023-02-21T00:54:07;46.07;;;25.73;;
18142;SDS011;9197;50.930;3.140;2023-02-21T00:56:52;49.43;;;26.47;;
18142;SDS011;9197;50.930;3.140;2023-02-21T00:59:37;51.00;;;27.23;;
18142;SDS011;9197;50.930;3.140;2023-02-21T01:02:23;49.70;;;26.17;;
18142;SDS011;9197;50.930;3.140;2023-02-21T01:05:08;55.70;;;27.13;;
18142;SDS011;9197;50.930;3.140;2023-02-21T01:07:52;53.53;;;27.30;;
18142;SDS011;9197;50.930;3.140;2023-02-21T01:10:37;54.27;;;28.37;;
18142;SDS011;9197;50.930;3.140;2023-02-21T01:13:22;53.10;;;27.67;;
18142;SDS011;9197;50.930;3.140;2023-02-21T01:16:07;51.70;;;27.60;;
18142;SDS011;9197;50.930;3.140;2023-02-21T01:18:53;62.73;;;28.70;;
18142;SDS011;9197;50.930;3.140;2023-02-21T01:21:38;51.47;;;28.57;;
18142;SDS011;9197;50.930;3.140;2023-02-21T01:24:23;51.50;;;28.03;;
18142;SDS011;9197;50.930;3.140;2023-02-21T01:27:07;51.43;;;26.97;;
18142;SDS011;9197;50.930;3.140;2023-02-21T01:29:52;47.90;;;27.20;;
18142;SDS011;9197;50.930;3.140;2023-02-21T01:32:37;52.47;;;26.47;;
18142;SDS011;9197;50.930;3.140;2023-02-21T01:35:24;47.30;;;24.73;;
18142;SDS011;9197;50.930;3.140;2023-02-21T01:38:09;39.80;;;23.07;;
18142;SDS011;9197;50.930;3.140;2023-02-21T01:40:54;41.00;;;23.53;;
18142;SDS011;9197;50.930;3.140;2023-02-21T01:43:54;41.77;;;23.40;;
18142;SDS011;9197;50.930;3.140;2023-02-21T01:46:39;40.83;;;21.90;;
18142;SDS011;9197;50.930;3.140;2023-02-21T01:49:24;40.67;;;21.17;;
18142;SDS011;9197;50.930;3.140;2023-02-21T01:52:10;43.67;;;21.53;;
18142;SDS011;9197;50.930;3.140;2023-02-21T01:54:56;47.63;;;23.23;;
18142;SDS011;9197;50.930;3.140;2023-02-21T01:57:41;48.63;;;23.53;;
18142;SDS011;9197;50.930;3.140;2023-02-21T02:00:27;51.80;;;25.30;;
18142;SDS011;9197;50.930;3.140;2023-02-21T02:03:12;48.80;;;23.60;;
18142;SDS011;9197;50.930;3.140;2023-02-21T02:05:59;47.70;;;25.17;;
18142;SDS011;9197;50.930;3.140;2023-02-21T02:08:46;53.17;;;25.27;;
18142;SDS011;9197;50.930;3.140;2023-02-21T02:11:36;55.47;;;25.10;;
18142;SDS011;9197;50.930;3.140;2023-02-21T02:17:11;61.93;;;26.90;;
18142;SDS011;9197;50.930;3.140;2023-02-21T02:19:50;58.10;;;26.37;;
18142;SDS011;9197;50.930;3.140;2023-02-21T02:22:37;58.37;;;27.60;;
18142;SDS011;9197;50.930;3.140;2023-02-21T02:25:11;58.73;;;27.60;;
18142;SDS011;9197;50.930;3.140;2023-02-21T02:27:46;61.77;;;28.53;;
18142;SDS011;9197;50.930;3.140;2023-02-21T02:30:22;58.03;;;26.87;;
18142;SDS011;9197;50.930;3.140;2023-02-21T02:33:10;53.17;;;25.00;;
18142;SDS011;9197;50.930;3.140;2023-02-21T02:35:42;43.70;;;22.00;;
18142;SDS011;9197;50.930;3.140;2023-02-21T02:38:13;40.73;;;21.73;;
18142;SDS011;9197;50.930;3.140;2023-02-21T02:40:45;45.80;;;21.90;;
18142;SDS011;9197;50.930;3.140;2023-02-21T02:43:14;51.57;;;23.53;;
18142;SDS011;9197;50.930;3.140;2023-02-21T02:45:43;50.33;;;23.67;;
18142;SDS011;9197;50.930;3.140;2023-02-21T02:48:12;48.93;;;22.80;;
18142;SDS011;9197;50.930;3.140;2023-02-21T02:50:42;51.33;;;22.43;;
18142;SDS011;9197;50.930;3.140;2023-02-21T02:53:11;47.77;;;24.03;;
18142;SDS011;9197;50.930;3.140;2023-02-21T02:55:42;46.33;;;22.10;;
18142;SDS011;9197;50.930;3.140;2023-02-21T02:58:12;54.50;;;26.27;;
18142;SDS011;9197;50.930;3.140;2023-02-21T03:00:39;51.37;;;24.10;;
18142;SDS011;9197;50.930;3.140;2023-02-21T03:06:03;31.77;;;15.57;;
18142;SDS011;9197;50.930;3.140;2023-02-21T03:08:37;29.43;;;14.57;;
18142;SDS011;9197;50.930;3.140;2023-02-21T03:11:06;22.07;;;11.47;;
18142;SDS011;9197;50.930;3.140;2023-02-21T03:13:36;21.30;;;10.80;;
18142;SDS011;9197;50.930;3.140;2023-02-21T03:16:08;17.80;;;10.33;;
18142;SDS011;9197;50.930;3.140;2023-02-21T03:18:39;19.27;;;10.67;;
18142;SDS011;9197;50.930;3.140;2023-02-21T03:21:10;20.40;;;11.13;;
18142;SDS011;9197;50.930;3.140;2023-02-21T03:23:38;19.10;;;9.93;;
18142;SDS011;9197;50.930;3.140;2023-02-21T03:26:06;19.27;;;10.47;;
18142;SDS011;9197;50.930;3.140;2023-02-21T03:28:34;16.77;;;10.63;;
18142;SDS011;9197;50.930;3.140;2023-02-21T03:31:03;20.03;;;10.70;;
18142;SDS011;9197;50.930;3.140;2023-02-21T03:33:31;16.17;;;9.53;;
18142;SDS011;9197;50.930;3.140;2023-02-21T03:35:59;17.90;;;10.63;;
18142;SDS011;9197;50.930;3.140;2023-02-21T03:38:30;20.00;;;10.57;;
18142;SDS011;9197;50.930;3.140;2023-02-21T03:40:57;17.60;;;10.17;;
18142;SDS011;9197;50.930;3.140;2023-02-21T03:43:25;16.07;;;10.00;;
18142;SDS011;9197;50.930;3.140;2023-02-21T03:45:52;15.77;;;9.90;;
18142;SDS011;9197;50.930;3.140;2023-02-21T03:48:19;18.30;;;10.07;;
18142;SDS011;9197;50.930;3.140;2023-02-21T03:50:47;14.43;;;8.17;;
18142;SDS011;9197;50.930;3.140;2023-02-21T03:53:15;13.87;;;8.77;;
18142;SDS011;9197;50.930;3.140;2023-02-21T03:55:44;18.33;;;9.93;;
18142;SDS011;9197;50.930;3.140;2023-02-21T03:58:11;13.47;;;8.27;;
18142;SDS011;9197;50.930;3.140;2023-02-21T04:00:38;18.57;;;9.63;;
18142;SDS011;9197;50.930;3.140;2023-02-21T04:03:05;16.57;;;9.00;;
18142;SDS011;9197;50.930;3.140;2023-02-21T04:05:32;16.77;;;8.53;;
18142;SDS011;9197;50.930;3.140;2023-02-21T04:08:00;14.93;;;8.70;;
18142;SDS011;9197;50.930;3.140;2023-02-21T04:10:27;11.23;;;7.17;;
18142;SDS011;9197;50.930;3.140;2023-02-21T04:12:56;16.37;;;8.37;;
18142;SDS011;9197;50.930;3.140;2023-02-21T04:15:23;11.97;;;7.30;;
18142;SDS011;9197;50.930;3.140;2023-02-21T04:17:50;11.80;;;7.07;;
18142;SDS011;9197;50.930;3.140;2023-02-21T04:20:17;11.90;;;6.77;;
18142;SDS011;9197;50.930;3.140;2023-02-21T04:22:45;13.37;;;7.97;;
18142;SDS011;9197;50.930;3.140;2023-02-21T04:25:13;14.13;;;7.30;;
18142;SDS011;9197;50.930;3.140;2023-02-21T04:27:42;12.40;;;8.07;;
18142;SDS011;9197;50.930;3.140;2023-02-21T04:30:11;12.03;;;6.90;;
18142;SDS011;9197;50.930;3.140;2023-02-21T04:32:39;14.00;;;7.50;;
18142;SDS011;9197;50.930;3.140;2023-02-21T04:35:06;13.13;;;7.67;;
18142;SDS011;9197;50.930;3.140;2023-02-21T04:37:33;10.17;;;7.30;;
18142;SDS011;9197;50.930;3.140;2023-02-21T04:40:00;15.03;;;8.27;;
18142;SDS011;9197;50.930;3.140;2023-02-21T04:42:28;10.63;;;7.83;;
18142;SDS011;9197;50.930;3.140;2023-02-21T04:44:55;18.17;;;10.20;;
18142;SDS011;9197;50.930;3.140;2023-02-21T04:47:23;20.50;;;10.70;;
18142;SDS011;9197;50.930;3.140;2023-02-21T04:49:51;19.87;;;14.07;;
18142;SDS011;9197;50.930;3.140;2023-02-21T04:52:18;21.73;;;14.60;;
18142;SDS011;9197;50.930;3.140;2023-02-21T04:54:45;26.13;;;14.97;;
18142;SDS011;9197;50.930;3.140;2023-02-21T04:57:13;19.87;;;12.67;;
18142;SDS011;9197;50.930;3.140;2023-02-21T04:59:40;21.37;;;11.73;;
18142;SDS011;9197;50.930;3.140;2023-02-21T05:02:08;25.10;;;14.13;;
18142;SDS011;9197;50.930;3.140;2023-02-21T05:04:36;22.27;;;14.00;;
18142;SDS011;9197;50.930;3.140;2023-02-21T05:07:04;24.23;;;13.57;;
18142;SDS011;9197;50.930;3.140;2023-02-21T05:09:31;21.00;;;13.93;;
18142;SDS011;9197;50.930;3.140;2023-02-21T05:11:59;22.73;;;13.53;;
18142;SDS011;9197;50.930;3.140;2023-02-21T05:14:26;17.83;;;11.50;;
18142;SDS011;9197;50.930;3.140;2023-02-21T05:16:53;20.37;;;12.60;;
18142;SDS011;9197;50.930;3.140;2023-02-21T05:19:20;23.03;;;12.20;;
18142;SDS011;9197;50.930;3.140;2023-02-21T05:21:54;21.33;;;12.23;;
18142;SDS011;9197;50.930;3.140;2023-02-21T05:24:22;22.70;;;13.13;;
18142;SDS011;9197;50.930;3.140;2023-02-21T05:26:49;24.47;;;13.80;;
18142;SDS011;9197;50.930;3.140;2023-02-21T05:29:17;21.97;;;13.13;;
18142;SDS011;9197;50.930;3.140;2023-02-21T05:31:44;24.67;;;12.90;;
18142;SDS011;9197;50.930;3.140;2023-02-21T05:34:12;17.83;;;11.60;;
18142;SDS011;9197;50.930;3.140;2023-02-21T05:36:40;21.40;;;12.07;;
18142;SDS011;9197;50.930;3.140;2023-02-21T05:39:09;20.77;;;12.27;;
18142;SDS011;9197;50.930;3.140;2023-02-21T05:41:36;20.00;;;11.90;;
18142;SDS011;9197;50.930;3.140;2023-02-21T05:44:03;19.83;;;11.80;;
18142;SDS011;9197;50.930;3.140;2023-02-21T05:46:31;20.57;;;11.40;;
18142;SDS011;9197;50.930;3.140;2023-02-21T05:48:59;19.93;;;11.80;;
18142;SDS011;9197;50.930;3.140;2023-02-21T05:51:27;19.60;;;11.50;;
18142;SDS011;9197;50.930;3.140;2023-02-21T05:53:54;21.63;;;11.43;;
18142;SDS011;9197;50.930;3.140;2023-02-21T05:56:22;19.20;;;12.20;;
18142;SDS011;9197;50.930;3.140;2023-02-21T05:58:50;24.10;;;12.70;;
18142;SDS011;9197;50.930;3.140;2023-02-21T06:01:17;22.20;;;12.73;;
18142;SDS011;9197;50.930;3.140;2023-02-21T06:03:44;19.73;;;11.90;;
18142;SDS011;9197;50.930;3.140;2023-02-21T06:06:13;24.83;;;13.63;;
18142;SDS011;9197;50.930;3.140;2023-02-21T06:08:41;21.70;;;13.93;;
18142;SDS011;9197;50.930;3.140;2023-02-21T06:11:08;24.00;;;13.53;;
18142;SDS011;9197;50.930;3.140;2023-02-21T06:13:37;25.17;;;14.50;;
18142;SDS011;9197;50.930;3.140;2023-02-21T06:16:05;22.80;;;11.33;;
18142;SDS011;9197;50.930;3.140;2023-02-21T06:18:32;26.97;;;14.50;;
18142;SDS011;9197;50.930;3.140;2023-02-21T06:20:59;24.40;;;13.87;;
18142;SDS011;9197;50.930;3.140;2023-02-21T06:23:26;20.33;;;13.07;;
18142;SDS011;9197;50.930;3.140;2023-02-21T06:25:53;25.10;;;12.43;;
18142;SDS011;9197;50.930;3.140;2023-02-21T06:28:21;25.00;;;14.20;;
18142;SDS011;9197;50.930;3.140;2023-02-21T06:30:49;23.50;;;10.87;;
18142;SDS011;9197;50.930;3.140;2023-02-21T06:33:17;19.73;;;11.63;;
18142;SDS011;9197;50.930;3.140;2023-02-21T06:35:44;23.87;;;13.27;;
18142;SDS011;9197;50.930;3.140;2023-02-21T06:38:11;24.80;;;12.57;;
18142;SDS011;9197;50.930;3.140;2023-02-21T06:40:38;21.77;;;12.37;;
18142;SDS011;9197;50.930;3.140;2023-02-21T06:43:06;27.07;;;14.00;;
18142;SDS011;9197;50.930;3.140;2023-02-21T06:45:33;36.30;;;15.90;;
18142;SDS011;9197;50.930;3.140;2023-02-21T06:48:02;44.63;;;21.00;;
18142;SDS011;9197;50.930;3.140;2023-02-21T06:50:29;42.20;;;18.43;;
18142;SDS011;9197;50.930;3.140;2023-02-21T06:52:56;43.93;;;18.33;;
18142;SDS011;9197;50.930;3.140;2023-02-21T06:55:24;37.27;;;15.37;;
18142;SDS011;9197;50.930;3.140;2023-02-21T06:57:51;36.40;;;16.53;;
18142;SDS011;9197;50.930;3.140;2023-02-21T07:00:18;30.07;;;12.53;;
18142;SDS011;9197;50.930;3.140;2023-02-21T07:02:46;26.07;;;13.10;;
18142;SDS011;9197;50.930;3.140;2023-02-21T07:05:14;22.33;;;10.90;;
18142;SDS011;9197;50.930;3.140;2023-02-21T07:07:42;20.73;;;10.10;;
18142;SDS011;9197;50.930;3.140;2023-02-21T07:10:09;17.67;;;9.10;;
18142;SDS011;9197;50.930;3.140;2023-02-21T07:12:37;18.90;;;9.47;;
18142;SDS011;9197;50.930;3.140;2023-02-21T07:15:04;19.47;;;9.30;;
18142;SDS011;9197;50.930;3.140;2023-02-21T07:17:32;19.10;;;10.13;;
18142;SDS011;9197;50.930;3.140;2023-02-21T07:19:59;17.50;;;9.50;;
18142;SDS011;9197;50.930;3.140;2023-02-21T07:22:28;19.50;;;9.27;;
18142;SDS011;9197;50.930;3.140;2023-02-21T07:24:55;19.70;;;9.57;;
18142;SDS011;9197;50.930;3.140;2023-02-21T07:27:22;17.03;;;9.03;;
18142;SDS011;9197;50.930;3.140;2023-02-21T07:29:50;12.23;;;6.40;;
18142;SDS011;9197;50.930;3.140;2023-02-21T07:32:17;13.23;;;6.83;;
18142;SDS011;9197;50.930;3.140;2023-02-21T07:34:44;13.00;;;7.83;;
18142;SDS011;9197;50.930;3.140;2023-02-21T07:37:12;11.53;;;6.67;;
18142;SDS011;9197;50.930;3.140;2023-02-21T07:39:40;12.13;;;6.63;;
18142;SDS011;9197;50.930;3.140;2023-02-21T07:42:07;13.03;;;7.27;;
18142;SDS011;9197;50.930;3.140;2023-02-21T07:44:35;13.33;;;7.37;;
18142;SDS011;9197;50.930;3.140;2023-02-21T07:47:02;15.93;;;7.90;;
18142;SDS011;9197;50.930;3.140;2023-02-21T07:49:29;15.87;;;8.37;;
18142;SDS011;9197;50.930;3.140;2023-02-21T07:51:56;14.87;;;7.93;;
18142;SDS011;9197;50.930;3.140;2023-02-21T07:54:24;12.10;;;7.30;;
18142;SDS011;9197;50.930;3.140;2023-02-21T07:56:53;12.27;;;7.90;;
18142;SDS011;9197;50.930;3.140;2023-02-21T07:59:20;13.57;;;7.47;;
18142;SDS011;9197;50.930;3.140;2023-02-21T08:01:48;15.50;;;8.10;;
18142;SDS011;9197;50.930;3.140;2023-02-21T08:04:15;14.60;;;8.87;;
18142;SDS011;9197;50.930;3.140;2023-02-21T08:06:45;14.37;;;8.17;;
18142;SDS011;9197;50.930;3.140;2023-02-21T08:09:13;14.83;;;8.63;;
18142;SDS011;9197;50.930;3.140;2023-02-21T08:11:40;18.97;;;7.83;;
18142;SDS011;9197;50.930;3.140;2023-02-21T08:14:09;14.00;;;7.73;;
18142;SDS011;9197;50.930;3.140;2023-02-21T08:16:36;12.33;;;7.97;;
18142;SDS011;9197;50.930;3.140;2023-02-21T08:19:03;10.83;;;6.40;;
18142;SDS011;9197;50.930;3.140;2023-02-21T08:21:32;15.33;;;7.83;;
18142;SDS011;9197;50.930;3.140;2023-02-21T08:23:59;13.67;;;7.70;;
18142;SDS011;9197;50.930;3.140;2023-02-21T08:26:26;11.73;;;6.70;;
18142;SDS011;9197;50.930;3.140;2023-02-21T08:28:53;11.93;;;6.57;;
18142;SDS011;9197;50.930;3.140;2023-02-21T08:31:22;12.33;;;6.30;;
18142;SDS011;9197;50.930;3.140;2023-02-21T08:33:50;11.43;;;6.27;;
18142;SDS011;9197;50.930;3.140;2023-02-21T08:36:18;8.23;;;5.00;;
18142;SDS011;9197;50.930;3.140;2023-02-21T08:38:45;11.00;;;6.20;;
18142;SDS011;9197;50.930;3.140;2023-02-21T08:41:12;9.43;;;5.77;;
18142;SDS011;9197;50.930;3.140;2023-02-21T08:43:40;9.23;;;5.97;;
18142;SDS011;9197;50.930;3.140;2023-02-21T08:46:07;10.13;;;5.33;;
18142;SDS011;9197;50.930;3.140;2023-02-21T08:48:35;8.20;;;5.30;;
18142;SDS011;9197;50.930;3.140;2023-02-21T08:51:03;12.40;;;7.43;;
18142;SDS011;9197;50.930;3.140;2023-02-21T08:53:30;10.50;;;7.40;;
18142;SDS011;9197;50.930;3.140;2023-02-21T08:55:57;9.80;;;5.83;;
18142;SDS011;9197;50.930;3.140;2023-02-21T08:58:25;7.17;;;4.87;;
18142;SDS011;9197;50.930;3.140;2023-02-21T09:00:52;7.87;;;5.47;;
18142;SDS011;9197;50.930;3.140;2023-02-21T09:03:19;8.90;;;4.70;;
18142;SDS011;9197;50.930;3.140;2023-02-21T09:05:48;8.93;;;5.67;;
18142;SDS011;9197;50.930;3.140;2023-02-21T09:08:15;9.43;;;6.10;;
18142;SDS011;9197;50.930;3.140;2023-02-21T09:10:44;7.10;;;4.30;;
18142;SDS011;9197;50.930;3.140;2023-02-21T09:13:13;6.47;;;4.37;;
18142;SDS011;9197;50.930;3.140;2023-02-21T09:15:40;7.53;;;4.73;;
18142;SDS011;9197;50.930;3.140;2023-02-21T09:18:07;9.40;;;6.70;;
18142;SDS011;9197;50.930;3.140;2023-02-21T09:20:37;9.03;;;5.00;;
18142;SDS011;9197;50.930;3.140;2023-02-21T09:23:07;10.37;;;7.13;;
18142;SDS011;9197;50.930;3.140;2023-02-21T09:25:35;9.00;;;5.27;;
18142;SDS011;9197;50.930;3.140;2023-02-21T09:28:03;6.63;;;4.47;;
18142;SDS011;9197;50.930;3.140;2023-02-21T09:30:30;7.77;;;5.13;;
18142;SDS011;9197;50.930;3.140;2023-02-21T09:32:57;7.80;;;5.30;;
18142;SDS011;9197;50.930;3.140;2023-02-21T09:35:27;6.67;;;4.73;;
18142;SDS011;9197;50.930;3.140;2023-02-21T09:37:55;6.00;;;4.37;;
18142;SDS011;9197;50.930;3.140;2023-02-21T09:40:26;6.43;;;4.73;;
18142;SDS011;9197;50.930;3.140;2023-02-21T09:42:57;6.47;;;4.53;;
18142;SDS011;9197;50.930;3.140;2023-02-21T09:45:25;5.27;;;4.40;;
18142;SDS011;9197;50.930;3.140;2023-02-21T09:47:54;7.63;;;5.13;;
18142;SDS011;9197;50.930;3.140;2023-02-21T09:50:24;7.40;;;5.33;;
18142;SDS011;9197;50.930;3.140;2023-02-21T09:52:55;6.57;;;4.53;;
18142;SDS011;9197;50.930;3.140;2023-02-21T09:55:26;7.17;;;4.77;;
18142;SDS011;9197;50.930;3.140;2023-02-21T09:57:54;7.60;;;5.20;;
18142;SDS011;9197;50.930;3.140;2023-02-21T10:00:22;27.80;;;25.10;;
18142;SDS011;9197;50.930;3.140;2023-02-21T10:02:53;23.60;;;21.10;;
18142;SDS011;9197;50.930;3.140;2023-02-21T10:05:26;10.77;;;8.00;;
18142;SDS011;9197;50.930;3.140;2023-02-21T10:07:58;7.70;;;5.77;;
18142;SDS011;9197;50.930;3.140;2023-02-21T10:10:28;10.00;;;7.90;;
18142;SDS011;9197;50.930;3.140;2023-02-21T10:12:58;11.17;;;7.73;;
18142;SDS011;9197;50.930;3.140;2023-02-21T10:15:39;5.90;;;5.30;;
18142;SDS011;9197;50.930;3.140;2023-02-21T10:18:08;6.40;;;4.90;;
18142;SDS011;9197;50.930;3.140;2023-02-21T10:20:41;9.53;;;6.00;;
18142;SDS011;9197;50.930;3.140;2023-02-21T10:23:14;14.03;;;8.77;;
18142;SDS011;9197;50.930;3.140;2023-02-21T10:25:43;13.90;;;8.97;;
18142;SDS011;9197;50.930;3.140;2023-02-21T10:28:13;15.70;;;10.90;;
18142;SDS011;9197;50.930;3.140;2023-02-21T10:30:42;14.53;;;10.37;;
18142;SDS011;9197;50.930;3.140;2023-02-21T10:33:10;13.33;;;10.07;;
18142;SDS011;9197;50.930;3.140;2023-02-21T10:35:37;16.73;;;11.30;;
18142;SDS011;9197;50.930;3.140;2023-02-21T10:38:05;15.87;;;10.60;;
18142;SDS011;9197;50.930;3.140;2023-02-21T10:40:34;11.40;;;9.67;;
18142;SDS011;9197;50.930;3.140;2023-02-21T10:43:06;8.83;;;7.10;;
18142;SDS011;9197;50.930;3.140;2023-02-21T10:45:35;10.30;;;6.83;;
18142;SDS011;9197;50.930;3.140;2023-02-21T10:48:03;8.57;;;6.10;;
18142;SDS011;9197;50.930;3.140;2023-02-21T10:50:38;6.50;;;4.60;;
18142;SDS011;9197;50.930;3.140;2023-02-21T10:53:06;5.23;;;4.23;;
18142;SDS011;9197;50.930;3.140;2023-02-21T10:55:34;5.27;;;4.17;;
18142;SDS011;9197;50.930;3.140;2023-02-21T10:58:07;5.63;;;4.17;;
18142;SDS011;9197;50.930;3.140;2023-02-21T11:00:35;4.80;;;3.70;;
18142;SDS011;9197;50.930;3.140;2023-02-21T11:03:05;5.70;;;4.00;;
18142;SDS011;9197;50.930;3.140;2023-02-21T11:05:32;6.33;;;4.37;;
18142;SDS011;9197;50.930;3.140;2023-02-21T11:08:04;5.03;;;4.00;;
18142;SDS011;9197;50.930;3.140;2023-02-21T11:10:32;5.93;;;4.20;;
18142;SDS011;9197;50.930;3.140;2023-02-21T11:13:01;5.23;;;3.70;;
18142;SDS011;9197;50.930;3.140;2023-02-21T11:15:30;4.83;;;3.87;;
18142;SDS011;9197;50.930;3.140;2023-02-21T11:18:13;5.73;;;5.00;;
18142;SDS011;9197;50.930;3.140;2023-02-21T11:20:41;6.37;;;4.23;;
18142;SDS011;9197;50.930;3.140;2023-02-21T11:23:18;6.00;;;5.13;;
18142;SDS011;9197;50.930;3.140;2023-02-21T11:25:46;5.93;;;4.60;;
18142;SDS011;9197;50.930;3.140;2023-02-21T11:28:16;5.83;;;5.23;;
18142;SDS011;9197;50.930;3.140;2023-02-21T11:30:47;6.87;;;5.00;;
18142;SDS011;9197;50.930;3.140;2023-02-21T11:33:17;8.27;;;5.97;;
18142;SDS011;9197;50.930;3.140;2023-02-21T11:35:46;6.80;;;5.67;;
18142;SDS011;9197;50.930;3.140;2023-02-21T11:38:29;7.70;;;6.43;;
18142;SDS011;9197;50.930;3.140;2023-02-21T11:40:59;7.67;;;6.37;;
18142;SDS011;9197;50.930;3.140;2023-02-21T11:43:27;7.77;;;5.50;;
18142;SDS011;9197;50.930;3.140;2023-02-21T11:45:59;8.43;;;6.83;;
18142;SDS011;9197;50.930;3.140;2023-02-21T11:48:30;7.33;;;6.60;;
18142;SDS011;9197;50.930;3.140;2023-02-21T11:51:02;8.90;;;7.10;;
18142;SDS011;9197;50.930;3.140;2023-02-21T11:53:33;10.90;;;7.97;;
18142;SDS011;9197;50.930;3.140;2023-02-21T11:56:05;10.03;;;7.47;;
18142;SDS011;9197;50.930;3.140;2023-02-21T11:58:34;10.13;;;8.00;;
18142;SDS011;9197;50.930;3.140;2023-02-21T12:01:04;9.77;;;8.07;;
18142;SDS011;9197;50.930;3.140;2023-02-21T12:03:40;10.20;;;8.53;;
18142;SDS011;9197;50.930;3.140;2023-02-21T12:06:10;12.47;;;8.53;;
18142;SDS011;9197;50.930;3.140;2023-02-21T12:08:43;9.57;;;7.17;;
18142;SDS011;9197;50.930;3.140;2023-02-21T12:11:18;11.63;;;7.13;;
18142;SDS011;9197;50.930;3.140;2023-02-21T12:13:49;10.50;;;7.93;;
18142;SDS011;9197;50.930;3.140;2023-02-21T12:16:22;9.40;;;7.23;;
18142;SDS011;9197;50.930;3.140;2023-02-21T12:18:56;9.93;;;8.93;;
18142;SDS011;9197;50.930;3.140;2023-02-21T12:21:31;7.70;;;6.93;;
18142;SDS011;9197;50.930;3.140;2023-02-21T12:24:02;9.70;;;7.60;;
18142;SDS011;9197;50.930;3.140;2023-02-21T12:26:38;10.83;;;9.37;;
18142;SDS011;9197;50.930;3.140;2023-02-21T12:29:14;9.73;;;7.10;;
18142;SDS011;9197;50.930;3.140;2023-02-21T12:31:51;8.93;;;7.17;;
18142;SDS011;9197;50.930;3.140;2023-02-21T12:34:26;11.90;;;8.80;;
18142;SDS011;9197;50.930;3.140;2023-02-21T12:42:39;9.73;;;8.43;;
18142;SDS011;9197;50.930;3.140;2023-02-21T12:45:16;10.83;;;8.57;;
18142;SDS011;9197;50.930;3.140;2023-02-21T12:47:49;10.33;;;9.00;;
18142;SDS011;9197;50.930;3.140;2023-02-21T12:50:19;13.23;;;10.40;;
18142;SDS011;9197;50.930;3.140;2023-02-21T12:52:51;13.83;;;9.23;;
18142;SDS011;9197;50.930;3.140;2023-02-21T12:55:28;10.30;;;9.13;;
18142;SDS011;9197;50.930;3.140;2023-02-21T12:57:59;10.63;;;9.13;;
18142;SDS011;9197;50.930;3.140;2023-02-21T13:00:30;11.30;;;9.63;;
18142;SDS011;9197;50.930;3.140;2023-02-21T13:03:00;12.03;;;9.77;;
18142;SDS011;9197;50.930;3.140;2023-02-21T13:05:32;10.37;;;9.37;;
18142;SDS011;9197;50.930;3.140;2023-02-21T13:08:04;12.57;;;9.80;;
18142;SDS011;9197;50.930;3.140;2023-02-21T13:10:34;10.83;;;9.13;;
18142;SDS011;9197;50.930;3.140;2023-02-21T13:13:03;10.47;;;8.53;;
18142;SDS011;9197;50.930;3.140;2023-02-21T13:15:32;10.83;;;9.17;;
18142;SDS011;9197;50.930;3.140;2023-02-21T13:18:03;10.20;;;9.07;;
18142;SDS011;9197;50.930;3.140;2023-02-21T13:20:33;12.83;;;10.80;;
18142;SDS011;9197;50.930;3.140;2023-02-21T13:23:01;10.63;;;9.40;;
18142;SDS011;9197;50.930;3.140;2023-02-21T13:25:33;11.20;;;9.13;;
18142;SDS011;9197;50.930;3.140;2023-02-21T13:28:03;12.57;;;9.97;;
18142;SDS011;9197;50.930;3.140;2023-02-21T13:30:37;10.73;;;9.63;;
18142;SDS011;9197;50.930;3.140;2023-02-21T13:33:06;10.80;;;9.17;;
18142;SDS011;9197;50.930;3.140;2023-02-21T13:35:34;11.67;;;9.23;;
18142;SDS011;9197;50.930;3.140;2023-02-21T13:38:03;12.50;;;9.93;;
18142;SDS011;9197;50.930;3.140;2023-02-21T13:40:34;11.03;;;8.33;;
18142;SDS011;9197;50.930;3.140;2023-02-21T13:43:03;13.33;;;9.60;;
18142;SDS011;9197;50.930;3.140;2023-02-21T13:45:31;13.37;;;10.63;;
18142;SDS011;9197;50.930;3.140;2023-02-21T13:48:20;13.57;;;10.83;;
18142;SDS011;9197;50.930;3.140;2023-02-21T13:50:48;13.63;;;11.17;;
18142;SDS011;9197;50.930;3.140;2023-02-21T13:53:17;11.67;;;10.43;;
18142;SDS011;9197;50.930;3.140;2023-02-21T13:58:43;10.20;;;9.13;;
18142;SDS011;9197;50.930;3.140;2023-02-21T14:04:46;11.60;;;10.03;;
18142;SDS011;9197;50.930;3.140;2023-02-21T14:06:58;10.10;;;9.00;;
18142;SDS011;9197;50.930;3.140;2023-02-21T14:09:25;10.47;;;8.77;;
18142;SDS011;9197;50.930;3.140;2023-02-21T14:11:53;9.50;;;8.50;;
18142;SDS011;9197;50.930;3.140;2023-02-21T14:14:22;12.67;;;10.63;;
18142;SDS011;9197;50.930;3.140;2023-02-21T14:16:51;9.47;;;8.53;;
18142;SDS011;9197;50.930;3.140;2023-02-21T14:19:22;10.73;;;9.00;;
18142;SDS011;9197;50.930;3.140;2023-02-21T14:21:55;10.50;;;9.40;;
18142;SDS011;9197;50.930;3.140;2023-02-21T14:24:23;11.83;;;10.70;;
18142;SDS011;9197;50.930;3.140;2023-02-21T14:26:52;11.60;;;10.50;;
18142;SDS011;9197;50.930;3.140;2023-02-21T14:29:28;10.50;;;8.70;;
18142;SDS011;9197;50.930;3.140;2023-02-21T14:31:57;11.93;;;9.83;;
18142;SDS011;9197;50.930;3.140;2023-02-21T14:34:48;11.30;;;10.10;;
18142;SDS011;9197;50.930;3.140;2023-02-21T14:37:19;13.23;;;11.03;;
18142;SDS011;9197;50.930;3.140;2023-02-21T14:39:48;11.97;;;10.67;;
18142;SDS011;9197;50.930;3.140;2023-02-21T14:42:21;14.63;;;11.37;;
18142;SDS011;9197;50.930;3.140;2023-02-21T14:44:54;14.20;;;11.53;;
18142;SDS011;9197;50.930;3.140;2023-02-21T14:47:38;10.87;;;9.70;;
18142;SDS011;9197;50.930;3.140;2023-02-21T14:50:10;14.73;;;12.10;;
18142;SDS011;9197;50.930;3.140;2023-02-21T15:01:05;12.57;;;11.23;;
18142;SDS011;9197;50.930;3.140;2023-02-21T15:03:35;18.97;;;13.97;;
18142;SDS011;9197;50.930;3.140;2023-02-21T15:06:05;16.57;;;12.43;;
18142;SDS011;9197;50.930;3.140;2023-02-21T15:08:39;17.00;;;13.80;;
18142;SDS011;9197;50.930;3.140;2023-02-21T15:11:13;19.73;;;15.47;;
18142;SDS011;9197;50.930;3.140;2023-02-21T15:13:42;16.87;;;14.13;;
18142;SDS011;9197;50.930;3.140;2023-02-21T15:16:10;17.57;;;13.47;;
18142;SDS011;9197;50.930;3.140;2023-02-21T15:18:38;16.13;;;13.40;;
18142;SDS011;9197;50.930;3.140;2023-02-21T15:21:17;19.43;;;14.97;;
18142;SDS011;9197;50.930;3.140;2023-02-21T15:23:45;17.43;;;13.97;;
18142;SDS011;9197;50.930;3.140;2023-02-21T15:26:17;14.93;;;12.27;;
18142;SDS011;9197;50.930;3.140;2023-02-21T15:29:01;17.23;;;12.97;;
18142;SDS011;9197;50.930;3.140;2023-02-21T15:31:30;15.00;;;11.83;;
18142;SDS011;9197;50.930;3.140;2023-02-21T15:33:58;20.43;;;12.07;;
18142;SDS011;9197;50.930;3.140;2023-02-21T15:36:27;15.50;;;11.63;;